Time;durP1;ratioP1;P1;durP2;ratioP2;P2;SDS_P1;SDS_P2;PMS_P1;PMS_P2;Temp;Humidity;BMP_temperature;BMP_pressure;BME280_temperature;BME280_humidity;BME280_pressure;Samples;Min_cycle;Max_cycle;Signal;HPM_P1;HPM_P2
2023/03/13 00:01:26;;;;;;;8.23;4.90;;;;;;;;;;5019849;28;20030;-81
2023/03/13 00:03:54;;;;;;;7.82;4.47;;;;;;;;;;5021381;28;20053;-80
2023/03/13 00:06:20;;;;;;;8.18;5.10;;;;;;;;;;5024534;28;20025;-81
2023/03/13 00:08:46;;;;;;;10.77;4.97;;;;;;;;;;5019979;28;20026;-81
2023/03/13 00:11:14;;;;;;;9.73;4.55;;;;;;;;;;5004305;28;20433;-80
2023/03/13 00:13:40;;;;;;;9.30;4.40;;;;;;;;;;5004261;28;20019;-81
2023/03/13 00:16:07;;;;;;;10.50;5.18;;;;;;;;;;5007198;28;20038;-81
2023/03/13 00:18:33;;;;;;;9.75;5.60;;;;;;;;;;5003524;28;20069;-81
2023/03/13 00:21:00;;;;;;;8.25;5.18;;;;;;;;;;5008156;28;20036;-79
2023/03/13 00:23:26;;;;;;;9.30;4.75;;;;;;;;;;5013562;28;20033;-79
2023/03/13 00:25:59;;;;;;;8.07;4.80;;;;;;;;;;5015547;28;20052;-81
2023/03/13 00:28:25;;;;;;;7.53;4.97;;;;;;;;;;5008318;28;20066;-80
2023/03/13 00:30:51;;;;;;;9.35;5.43;;;;;;;;;;5007496;28;20490;-80
2023/03/13 00:33:17;;;;;;;10.18;5.47;;;;;;;;;;5005504;28;20058;-80
2023/03/13 00:35:43;;;;;;;7.93;4.90;;;;;;;;;;5014907;28;20077;-81
2023/03/13 00:38:09;;;;;;;8.68;5.40;;;;;;;;;;5023735;28;20022;-79
2023/03/13 00:40:35;;;;;;;8.85;5.18;;;;;;;;;;5007008;28;20077;-80
2023/03/13 00:43:01;;;;;;;7.75;4.57;;;;;;;;;;5021305;28;20037;-80
2023/03/13 00:45:27;;;;;;;7.95;4.90;;;;;;;;;;5018703;28;20022;-81
2023/03/13 00:47:53;;;;;;;7.75;4.88;;;;;;;;;;5012187;28;20057;-81
2023/03/13 00:50:19;;;;;;;8.48;5.00;;;;;;;;;;5021769;28;20022;-81
2023/03/13 00:52:45;;;;;;;7.10;4.60;;;;;;;;;;5012024;28;20030;-81
2023/03/13 00:55:11;;;;;;;7.72;4.63;;;;;;;;;;5015165;28;20026;-79
2023/03/13 00:57:37;;;;;;;6.35;4.22;;;;;;;;;;5010525;28;20026;-81
2023/03/13 01:00:07;;;;;;;9.18;4.70;;;;;;;;;;5007247;28;20034;-80
2023/03/13 01:02:33;;;;;;;8.25;4.38;;;;;;;;;;5020167;28;20068;-80
2023/03/13 01:04:59;;;;;;;8.43;4.47;;;;;;;;;;5010320;28;20026;-81
2023/03/13 01:07:26;;;;;;;9.55;5.13;;;;;;;;;;5001871;28;20035;-81
2023/03/13 01:09:52;;;;;;;7.57;4.97;;;;;;;;;;5012202;28;20106;-80
2023/03/13 01:12:18;;;;;;;9.15;5.20;;;;;;;;;;5003125;28;20023;-79
2023/03/13 01:14:44;;;;;;;7.72;5.15;;;;;;;;;;5009681;28;20418;-81
2023/03/13 01:17:10;;;;;;;8.02;4.90;;;;;;;;;;5007585;28;20042;-81
2023/03/13 01:19:36;;;;;;;9.55;5.18;;;;;;;;;;5008917;28;20034;-81
2023/03/13 01:22:02;;;;;;;9.75;5.47;;;;;;;;;;5010570;28;20027;-80
2023/03/13 01:24:28;;;;;;;9.00;4.97;;;;;;;;;;5014684;28;20030;-79
2023/03/13 01:26:54;;;;;;;9.00;5.15;;;;;;;;;;5024455;28;20025;-78
2023/03/13 01:29:20;;;;;;;8.65;4.55;;;;;;;;;;5015187;28;20041;-82
2023/03/13 01:31:46;;;;;;;7.78;5.13;;;;;;;;;;5022448;28;20037;-81
2023/03/13 01:34:12;;;;;;;7.90;4.78;;;;;;;;;;5018802;28;20034;-81
2023/03/13 01:36:38;;;;;;;8.50;4.40;;;;;;;;;;5009102;28;20050;-81
2023/03/13 01:39:04;;;;;;;7.47;4.65;;;;;;;;;;5006321;28;20061;-80
2023/03/13 01:41:31;;;;;;;8.35;5.00;;;;;;;;;;5011605;28;20068;-80
2023/03/13 01:43:57;;;;;;;7.85;4.63;;;;;;;;;;5021780;28;20044;-80
2023/03/13 01:46:25;;;;;;;7.13;3.88;;;;;;;;;;5002717;28;20037;-80
2023/03/13 01:48:54;;;;;;;6.63;3.85;;;;;;;;;;5008683;28;20030;-79
2023/03/13 01:51:25;;;;;;;6.93;3.72;;;;;;;;;;4999865;28;20030;-81
2023/03/13 01:53:56;;;;;;;6.00;3.25;;;;;;;;;;5014617;28;20506;-79
2023/03/13 01:56:26;;;;;;;5.72;3.08;;;;;;;;;;5007571;28;20030;-79
2023/03/13 01:58:53;;;;;;;6.28;3.33;;;;;;;;;;5000806;28;20502;-78
2023/03/13 02:01:19;;;;;;;6.10;3.50;;;;;;;;;;5011797;28;20057;-81
2023/03/13 02:03:46;;;;;;;5.65;3.33;;;;;;;;;;5005547;28;20509;-81
2023/03/13 02:06:12;;;;;;;5.75;3.05;;;;;;;;;;5021933;28;20083;-81
2023/03/13 02:08:48;;;;;;;6.80;3.58;;;;;;;;;;5013483;28;20026;-78
2023/03/13 02:11:37;;;;;;;5.80;3.00;;;;;;;;;;5017873;28;20033;-81
2023/03/13 02:14:04;;;;;;;6.47;3.17;;;;;;;;;;5003798;28;20026;-79
2023/03/13 02:16:31;;;;;;;5.97;3.42;;;;;;;;;;5004954;28;20034;-79
2023/03/13 02:18:57;;;;;;;6.30;3.25;;;;;;;;;;5009038;28;20033;-79
2023/03/13 02:21:36;;;;;;;6.38;3.20;;;;;;;;;;5004457;28;20135;-79
2023/03/13 02:24:13;;;;;;;6.57;3.10;;;;;;;;;;4999441;28;20045;-78
2023/03/13 02:26:39;;;;;;;6.40;3.47;;;;;;;;;;5006031;28;20084;-79
2023/03/13 02:29:05;;;;;;;6.47;3.90;;;;;;;;;;5003683;28;20022;-79
2023/03/13 02:31:31;;;;;;;5.88;3.17;;;;;;;;;;4996347;28;20045;-79
2023/03/13 02:33:59;;;;;;;7.07;3.55;;;;;;;;;;5011120;28;20545;-78
2023/03/13 02:36:25;;;;;;;7.18;3.63;;;;;;;;;;4994502;28;20026;-79
2023/03/13 02:38:56;;;;;;;7.22;3.42;;;;;;;;;;5000668;28;20026;-79
2023/03/13 02:41:22;;;;;;;6.57;3.83;;;;;;;;;;4999521;28;20112;-79
2023/03/13 02:43:48;;;;;;;6.18;3.85;;;;;;;;;;5008338;28;20041;-78
2023/03/13 02:46:19;;;;;;;6.80;4.22;;;;;;;;;;4997745;28;20038;-79
2023/03/13 02:48:46;;;;;;;6.47;3.63;;;;;;;;;;5005401;28;20133;-78
2023/03/13 02:51:15;;;;;;;6.22;3.85;;;;;;;;;;5004859;28;20041;-78
2023/03/13 02:53:41;;;;;;;7.30;3.83;;;;;;;;;;5007595;28;20072;-78
2023/03/13 02:56:07;;;;;;;9.93;4.85;;;;;;;;;;4995234;28;20052;-78
2023/03/13 02:58:41;;;;;;;7.63;3.90;;;;;;;;;;4991051;28;20475;-79
2023/03/13 03:01:07;;;;;;;6.25;3.55;;;;;;;;;;4999466;28;20057;-79
2023/03/13 03:03:34;;;;;;;6.35;3.35;;;;;;;;;;5002466;28;20468;-78
2023/03/13 03:06:01;;;;;;;8.10;4.00;;;;;;;;;;5006246;28;20033;-79
2023/03/13 03:08:27;;;;;;;7.05;4.50;;;;;;;;;;5012435;28;20029;-78
2023/03/13 03:10:53;;;;;;;6.82;3.88;;;;;;;;;;5012601;28;20022;-79
2023/03/13 03:13:18;;;;;;;10.40;4.53;;;;;;;;;;5010059;28;20506;-79
2023/03/13 03:15:44;;;;;;;10.95;4.88;;;;;;;;;;5006278;28;20022;-79
2023/03/13 03:18:11;;;;;;;8.75;4.68;;;;;;;;;;5004357;28;20482;-78
2023/03/13 03:20:37;;;;;;;8.95;4.50;;;;;;;;;;4993136;28;20073;-78
2023/03/13 03:23:03;;;;;;;8.98;4.78;;;;;;;;;;4994914;28;20390;-79
2023/03/13 03:25:29;;;;;;;9.57;4.47;;;;;;;;;;5013188;28;20018;-79
2023/03/13 03:27:55;;;;;;;8.35;4.47;;;;;;;;;;5011944;28;20037;-79
2023/03/13 03:30:21;;;;;;;7.38;4.00;;;;;;;;;;5013101;28;20322;-78
2023/03/13 03:32:47;;;;;;;7.18;4.50;;;;;;;;;;5009678;28;20027;-78
2023/03/13 03:35:13;;;;;;;6.35;4.00;;;;;;;;;;4994015;28;20022;-78
2023/03/13 03:37:39;;;;;;;7.00;4.13;;;;;;;;;;4997548;28;20034;-79
2023/03/13 03:40:05;;;;;;;9.13;4.78;;;;;;;;;;5010268;28;20041;-79
2023/03/13 03:42:31;;;;;;;7.22;4.30;;;;;;;;;;4995392;28;20057;-79
2023/03/13 03:44:57;;;;;;;7.13;4.45;;;;;;;;;;5013462;28;20034;-79
2023/03/13 03:47:23;;;;;;;7.97;4.40;;;;;;;;;;5011120;28;20018;-79
2023/03/13 03:49:49;;;;;;;6.93;4.65;;;;;;;;;;4994010;28;20023;-79
2023/03/13 03:52:16;;;;;;;6.80;4.60;;;;;;;;;;4999795;28;20050;-78
2023/03/13 03:54:42;;;;;;;8.07;4.43;;;;;;;;;;5004564;28;20129;-78
2023/03/13 03:57:08;;;;;;;8.55;4.57;;;;;;;;;;4994991;28;20034;-79
2023/03/13 03:59:34;;;;;;;7.40;4.30;;;;;;;;;;5004955;28;20663;-78
2023/03/13 04:02:00;;;;;;;9.30;4.40;;;;;;;;;;5005190;28;20026;-81
2023/03/13 04:04:26;;;;;;;7.72;4.50;;;;;;;;;;5008857;28;20573;-79
2023/03/13 04:06:52;;;;;;;8.43;5.13;;;;;;;;;;5006495;28;20517;-80
2023/03/13 04:09:18;;;;;;;7.82;4.72;;;;;;;;;;4996735;28;20030;-78
2023/03/13 04:11:44;;;;;;;9.60;4.82;;;;;;;;;;5014610;28;20489;-79
2023/03/13 04:14:10;;;;;;;7.82;4.72;;;;;;;;;;4999425;28;20027;-78
2023/03/13 04:16:36;;;;;;;6.85;4.38;;;;;;;;;;4993553;28;20057;-79
2023/03/13 04:19:02;;;;;;;9.45;5.60;;;;;;;;;;4995135;28;20077;-79
2023/03/13 04:21:28;;;;;;;10.75;7.07;;;;;;;;;;4998028;28;20375;-78
2023/03/13 04:23:54;;;;;;;18.45;8.35;;;;;;;;;;5013917;28;20045;-79
2023/03/13 04:26:20;;;;;;;16.65;9.23;;;;;;;;;;5015590;28;20026;-79
2023/03/13 04:28:46;;;;;;;13.05;8.15;;;;;;;;;;5003254;28;20026;-79
2023/03/13 04:31:13;;;;;;;13.73;8.00;;;;;;;;;;5010765;28;20061;-79
2023/03/13 04:33:39;;;;;;;12.32;7.90;;;;;;;;;;5002235;28;20034;-78
2023/03/13 04:36:06;;;;;;;12.13;7.80;;;;;;;;;;4996275;28;20026;-81
2023/03/13 04:38:32;;;;;;;11.38;8.13;;;;;;;;;;4995872;28;20099;-78
2023/03/13 04:40:58;;;;;;;12.30;7.50;;;;;;;;;;5008785;28;20030;-79
2023/03/13 04:43:24;;;;;;;12.02;7.22;;;;;;;;;;5009908;28;20041;-80
2023/03/13 04:45:53;;;;;;;9.15;6.03;;;;;;;;;;5003434;28;20085;-78
2023/03/13 04:48:19;;;;;;;9.23;5.30;;;;;;;;;;5004601;28;20029;-79
2023/03/13 04:50:47;;;;;;;8.30;4.90;;;;;;;;;;5000007;28;20061;-79
2023/03/13 04:53:13;;;;;;;8.30;5.70;;;;;;;;;;5001196;28;20037;-79
2023/03/13 04:55:39;;;;;;;8.52;4.68;;;;;;;;;;5009663;28;20100;-80
2023/03/13 04:58:05;;;;;;;7.72;4.78;;;;;;;;;;5010231;28;20129;-80
2023/03/13 05:00:31;;;;;;;9.48;4.90;;;;;;;;;;5012241;28;20155;-79
2023/03/13 05:02:57;;;;;;;7.40;5.22;;;;;;;;;;5003130;28;20057;-79
2023/03/13 05:05:23;;;;;;;7.95;4.43;;;;;;;;;;5012267;28;20030;-79
2023/03/13 05:07:49;;;;;;;8.98;5.07;;;;;;;;;;5017594;28;20500;-80
2023/03/13 05:10:15;;;;;;;7.95;4.65;;;;;;;;;;5005096;28;20026;-79
2023/03/13 05:12:41;;;;;;;9.32;4.95;;;;;;;;;;5009128;28;20042;-80
2023/03/13 05:15:07;;;;;;;8.93;4.88;;;;;;;;;;5012829;28;20026;-80
2023/03/13 05:17:34;;;;;;;7.93;4.65;;;;;;;;;;5009365;28;20026;-79
2023/03/13 05:20:00;;;;;;;8.75;4.90;;;;;;;;;;5006349;28;20069;-79
2023/03/13 05:22:26;;;;;;;8.38;5.20;;;;;;;;;;5005269;28;20037;-80
2023/03/13 05:24:52;;;;;;;7.15;4.97;;;;;;;;;;5020274;28;20489;-80
2023/03/13 05:27:18;;;;;;;7.90;4.97;;;;;;;;;;5013586;28;20037;-80
2023/03/13 05:29:44;;;;;;;7.07;5.13;;;;;;;;;;5008956;28;20041;-80
2023/03/13 05:32:10;;;;;;;7.40;4.82;;;;;;;;;;5002302;28;20065;-80
2023/03/13 05:34:36;;;;;;;11.70;6.38;;;;;;;;;;5015748;28;20026;-79
2023/03/13 05:37:02;;;;;;;12.10;6.78;;;;;;;;;;4999609;28;20031;-79
2023/03/13 05:39:28;;;;;;;10.48;5.00;;;;;;;;;;4999997;28;20498;-79
2023/03/13 05:41:54;;;;;;;9.07;5.00;;;;;;;;;;5012085;28;20037;-79
2023/03/13 05:44:20;;;;;;;9.48;5.30;;;;;;;;;;5007158;28;20042;-80
2023/03/13 05:46:46;;;;;;;9.50;5.70;;;;;;;;;;5025376;28;20021;-80
2023/03/13 05:49:12;;;;;;;11.55;5.30;;;;;;;;;;5005463;28;20036;-80
2023/03/13 05:51:38;;;;;;;21.20;9.35;;;;;;;;;;5037523;28;20029;-80
2023/03/13 05:54:04;;;;;;;26.63;11.65;;;;;;;;;;5035984;28;20015;-80
2023/03/13 05:56:30;;;;;;;20.13;10.10;;;;;;;;;;5012952;28;20022;-80
2023/03/13 05:58:56;;;;;;;15.52;8.27;;;;;;;;;;5007420;28;20051;-79
2023/03/13 06:01:24;;;;;;;9.93;5.63;;;;;;;;;;5002017;28;20127;-79
2023/03/13 06:03:50;;;;;;;8.82;4.80;;;;;;;;;;5000972;28;20026;-80
2023/03/13 06:06:16;;;;;;;11.95;5.53;;;;;;;;;;5002531;28;20026;-79
2023/03/13 06:08:42;;;;;;;8.10;4.97;;;;;;;;;;5020078;28;20720;-78
2023/03/13 06:11:08;;;;;;;9.43;4.88;;;;;;;;;;5001140;28;20035;-79
2023/03/13 06:13:34;;;;;;;8.48;4.90;;;;;;;;;;5015873;28;20022;-82
2023/03/13 06:16:00;;;;;;;12.60;6.60;;;;;;;;;;5006171;28;20110;-79
2023/03/13 06:18:26;;;;;;;15.68;8.45;;;;;;;;;;5008790;28;20121;-79
2023/03/13 06:20:57;;;;;;;14.70;7.60;;;;;;;;;;5016850;28;20076;-79
2023/03/13 06:23:23;;;;;;;12.40;7.35;;;;;;;;;;5023280;28;20030;-82
2023/03/13 06:25:49;;;;;;;9.55;6.20;;;;;;;;;;5011050;28;20025;-79
2023/03/13 06:28:15;;;;;;;9.50;5.97;;;;;;;;;;5010136;28;20441;-79
2023/03/13 06:30:42;;;;;;;8.77;5.32;;;;;;;;;;5017837;28;20026;-79
2023/03/13 06:33:09;;;;;;;7.80;5.35;;;;;;;;;;5022706;28;20026;-81
2023/03/13 06:35:35;;;;;;;9.07;5.38;;;;;;;;;;5008463;28;20050;-79
2023/03/13 06:38:01;;;;;;;8.95;5.20;;;;;;;;;;5001608;28;20065;-79
2023/03/13 06:40:27;;;;;;;9.82;5.15;;;;;;;;;;5015367;28;20042;-79
2023/03/13 06:42:53;;;;;;;8.82;4.95;;;;;;;;;;5008965;28;20034;-81
2023/03/13 06:45:19;;;;;;;9.25;4.30;;;;;;;;;;5017775;28;20034;-78
2023/03/13 06:47:45;;;;;;;9.88;5.05;;;;;;;;;;5014791;28;20158;-81
2023/03/13 06:50:11;;;;;;;8.45;4.20;;;;;;;;;;5011457;28;20050;-82
2023/03/13 06:52:37;;;;;;;10.65;4.50;;;;;;;;;;5013889;28;20028;-82
2023/03/13 06:55:04;;;;;;;8.00;4.70;;;;;;;;;;5019046;28;20026;-80
2023/03/13 06:57:30;;;;;;;8.52;4.53;;;;;;;;;;5010503;28;20076;-80
2023/03/13 06:59:56;;;;;;;8.82;4.50;;;;;;;;;;5016066;28;20049;-80
2023/03/13 07:02:23;;;;;;;7.68;4.75;;;;;;;;;;5009518;28;20426;-80
2023/03/13 07:04:49;;;;;;;10.07;5.25;;;;;;;;;;5009412;28;20045;-81
2023/03/13 07:07:15;;;;;;;7.47;4.43;;;;;;;;;;5020757;28;20041;-79
2023/03/13 07:09:41;;;;;;;9.85;4.30;;;;;;;;;;5011193;28;20026;-79
2023/03/13 07:12:07;;;;;;;9.30;4.80;;;;;;;;;;5007924;28;20037;-80
2023/03/13 07:14:33;;;;;;;7.10;4.25;;;;;;;;;;5015744;28;20093;-81
2023/03/13 07:16:59;;;;;;;11.23;4.80;;;;;;;;;;5004737;28;20109;-81
2023/03/13 07:19:26;;;;;;;9.23;5.32;;;;;;;;;;5005120;28;20010;-80
2023/03/13 07:21:52;;;;;;;8.45;4.80;;;;;;;;;;5006255;28;20503;-81
2023/03/13 07:24:19;;;;;;;9.27;5.68;;;;;;;;;;5006593;28;20125;-79
2023/03/13 07:26:45;;;;;;;11.02;5.80;;;;;;;;;;5004650;28;20042;-80
2023/03/13 07:29:11;;;;;;;8.45;5.03;;;;;;;;;;5012611;28;20034;-81
2023/03/13 07:31:38;;;;;;;7.57;4.25;;;;;;;;;;5019346;28;20029;-82
2023/03/13 07:34:04;;;;;;;8.45;4.70;;;;;;;;;;5007847;28;20050;-81
2023/03/13 07:36:30;;;;;;;7.88;4.38;;;;;;;;;;5020334;28;20500;-81
2023/03/13 07:38:56;;;;;;;8.30;4.65;;;;;;;;;;5016710;28;20025;-80
2023/03/13 07:41:22;;;;;;;9.80;4.93;;;;;;;;;;5022299;28;20032;-81
2023/03/13 07:43:48;;;;;;;9.15;5.03;;;;;;;;;;5014361;28;20029;-80
2023/03/13 07:46:17;;;;;;;9.25;4.90;;;;;;;;;;5007713;28;20100;-80
2023/03/13 07:48:43;;;;;;;7.55;4.78;;;;;;;;;;5022542;28;20113;-81
2023/03/13 07:51:16;;;;;;;7.18;4.28;;;;;;;;;;5023914;28;20026;-80
2023/03/13 07:53:42;;;;;;;;;;;;;;;;;;5023698;28;20084;-81
2023/03/13 07:56:13;;;;;;;7.47;4.63;;;;;;;;;;5021795;28;19988;-80
2023/03/13 07:58:40;;;;;;;9.90;5.10;;;;;;;;;;5007682;28;20096;-80
2023/03/13 08:01:09;;;;;;;7.38;4.45;;;;;;;;;;5022461;28;20014;-80
2023/03/13 08:03:36;;;;;;;9.15;5.35;;;;;;;;;;5017146;28;20026;-80
2023/03/13 08:06:09;;;;;;;8.73;4.80;;;;;;;;;;5002289;28;20022;-81
2023/03/13 08:08:35;;;;;;;7.82;4.78;;;;;;;;;;5018686;28;20089;-80
2023/03/13 08:11:03;;;;;;;8.43;5.32;;;;;;;;;;5005415;28;20037;-82
2023/03/13 08:13:29;;;;;;;8.88;5.50;;;;;;;;;;5017280;28;20026;-81
2023/03/13 08:16:12;;;;;;;9.77;5.55;;;;;;;;;;5011802;28;20023;-81
2023/03/13 08:18:39;;;;;;;9.88;6.53;;;;;;;;;;5009236;28;20105;-80
2023/03/13 08:21:06;;;;;;;10.45;6.65;;;;;;;;;;5005429;28;20050;-79
2023/03/13 08:23:33;;;;;;;9.45;5.32;;;;;;;;;;5009966;28;20094;-80
2023/03/13 08:26:08;;;;;;;10.98;5.60;;;;;;;;;;5022906;28;20026;-80
2023/03/13 08:28:34;;;;;;;11.38;5.93;;;;;;;;;;5024886;28;20010;-82
2023/03/13 08:31:15;;;;;;;8.82;5.10;;;;;;;;;;5021646;28;20023;-81
2023/03/13 08:33:42;;;;;;;7.32;5.43;;;;;;;;;;5011143;28;20033;-81
2023/03/13 08:36:16;;;;;;;8.38;5.45;;;;;;;;;;5030859;28;20022;-81
2023/03/13 08:38:43;;;;;;;10.50;5.70;;;;;;;;;;5013183;28;20029;-80
2023/03/13 08:41:09;;;;;;;11.80;6.30;;;;;;;;;;5012341;28;20090;-80
2023/03/13 08:43:35;;;;;;;9.90;5.40;;;;;;;;;;5020675;28;20014;-80
2023/03/13 08:46:01;;;;;;;10.23;6.18;;;;;;;;;;5019716;28;20034;-80
2023/03/13 08:48:27;;;;;;;8.95;6.20;;;;;;;;;;5007581;28;20022;-81
2023/03/13 08:51:04;;;;;;;12.68;6.63;;;;;;;;;;5025213;28;20022;-81
2023/03/13 08:53:31;;;;;;;11.52;6.47;;;;;;;;;;5026143;28;20033;-81
2023/03/13 08:55:57;;;;;;;8.65;5.53;;;;;;;;;;5024046;28;20577;-80
2023/03/13 08:58:23;;;;;;;8.38;5.95;;;;;;;;;;5019298;28;20157;-79
2023/03/13 09:00:53;;;;;;;8.70;5.80;;;;;;;;;;5022241;28;20469;-80
2023/03/13 09:03:19;;;;;;;8.07;5.20;;;;;;;;;;5021277;28;20495;-80
2023/03/13 09:05:46;;;;;;;7.78;4.80;;;;;;;;;;5023067;28;20023;-80
2023/03/13 09:08:13;;;;;;;8.90;4.57;;;;;;;;;;5023164;28;20100;-80
2023/03/13 09:10:39;;;;;;;8.18;4.78;;;;;;;;;;5024562;28;20032;-81
2023/03/13 09:13:05;;;;;;;7.80;4.88;;;;;;;;;;5021252;28;20026;-81
2023/03/13 09:15:30;;;;;;;7.35;4.93;;;;;;;;;;5009224;28;20026;-81
2023/03/13 09:17:56;;;;;;;7.85;4.72;;;;;;;;;;5023364;28;20334;-80
2023/03/13 09:20:23;;;;;;;9.18;5.57;;;;;;;;;;5024678;28;20030;-79
2023/03/13 09:22:49;;;;;;;8.25;5.22;;;;;;;;;;5027518;28;20030;-80
2023/03/13 09:25:15;;;;;;;8.02;5.10;;;;;;;;;;5010042;28;20033;-80
2023/03/13 09:27:41;;;;;;;8.63;5.25;;;;;;;;;;5005121;28;20026;-81
2023/03/13 09:30:07;;;;;;;9.95;5.57;;;;;;;;;;5005562;28;20026;-82
2023/03/13 09:32:33;;;;;;;9.20;5.32;;;;;;;;;;5003096;28;20089;-80
2023/03/13 09:34:59;;;;;;;8.80;5.50;;;;;;;;;;5023618;28;20029;-80
2023/03/13 09:37:25;;;;;;;10.50;5.40;;;;;;;;;;5004815;28;20092;-81
2023/03/13 09:39:51;;;;;;;11.63;5.40;;;;;;;;;;5004189;28;20161;-82
2023/03/13 09:42:20;;;;;;;10.10;6.20;;;;;;;;;;5007590;28;20026;-81
2023/03/13 09:44:55;;;;;;;11.73;6.10;;;;;;;;;;5014334;28;20033;-80
2023/03/13 09:47:47;;;;;;;9.90;6.38;;;;;;;;;;5020003;28;20037;-80
2023/03/13 09:50:17;;;;;;;9.70;5.57;;;;;;;;;;4997668;28;20030;-80
2023/03/13 09:52:43;;;;;;;9.60;5.72;;;;;;;;;;4998488;28;20046;-80
2023/03/13 09:55:14;;;;;;;10.55;5.50;;;;;;;;;;5001662;28;20022;-80
2023/03/13 09:57:45;;;;;;;10.35;6.05;;;;;;;;;;5008072;28;20606;-80
2023/03/13 10:00:21;;;;;;;8.65;5.47;;;;;;;;;;5019830;28;20095;-81
2023/03/13 10:02:52;;;;;;;8.50;5.53;;;;;;;;;;5021162;28;20026;-80
2023/03/13 10:05:26;;;;;;;10.18;6.13;;;;;;;;;;5023250;28;20037;-79
2023/03/13 10:07:56;;;;;;;9.35;5.97;;;;;;;;;;5011830;28;20041;-81
2023/03/13 10:10:43;;;;;;;10.05;5.50;;;;;;;;;;5011844;28;20034;-82
2023/03/13 10:13:16;;;;;;;8.50;5.57;;;;;;;;;;5015284;28;20048;-80
2023/03/13 10:15:46;;;;;;;10.32;5.57;;;;;;;;;;5006953;28;20033;-80
2023/03/13 10:18:19;;;;;;;17.10;6.03;;;;;;;;;;5007019;28;20045;-82
2023/03/13 10:20:46;;;;;;;10.82;6.25;;;;;;;;;;5001527;28;20038;-80
2023/03/13 10:23:15;;;;;;;9.32;5.90;;;;;;;;;;5007127;28;20041;-82
2023/03/13 10:25:41;;;;;;;11.50;6.20;;;;;;;;;;5009075;28;20034;-80
2023/03/13 10:28:11;;;;;;;9.95;5.80;;;;;;;;;;5002952;28;20034;-82
2023/03/13 10:30:38;;;;;;;9.75;6.15;;;;;;;;;;5003338;28;20035;-82
2023/03/13 10:33:07;;;;;;;13.27;6.78;;;;;;;;;;5007554;28;20109;-81
2023/03/13 10:35:38;;;;;;;8.63;5.47;;;;;;;;;;5002975;28;20476;-84
2023/03/13 10:38:10;;;;;;;9.40;5.35;;;;;;;;;;5000577;28;20030;-80
2023/03/13 10:40:36;;;;;;;11.68;6.10;;;;;;;;;;5002034;28;20030;-80
2023/03/13 10:43:18;;;;;;;9.63;5.78;;;;;;;;;;5005330;28;20034;-83
2023/03/13 10:45:44;;;;;;;10.65;5.50;;;;;;;;;;5007696;28;20026;-83
2023/03/13 10:48:14;;;;;;;8.73;5.78;;;;;;;;;;5018390;28;20046;-80
2023/03/13 10:50:42;;;;;;;11.98;5.60;;;;;;;;;;5023798;28;20572;-80
2023/03/13 10:53:34;;;;;;;8.88;5.50;;;;;;;;;;5020161;28;20022;-81
2023/03/13 10:56:00;;;;;;;9.30;5.50;;;;;;;;;;5013067;28;20579;-81
2023/03/13 10:58:45;;;;;;;8.95;5.05;;;;;;;;;;5002570;28;20078;-80
2023/03/13 11:01:17;;;;;;;13.77;5.18;;;;;;;;;;5007390;28;20040;-80
2023/03/13 11:03:44;;;;;;;11.40;5.50;;;;;;;;;;5002215;28;20121;-80
2023/03/13 11:06:25;;;;;;;9.20;5.20;;;;;;;;;;5005839;28;20030;-81
2023/03/13 11:08:58;;;;;;;7.93;4.95;;;;;;;;;;5003124;28;20084;-80
2023/03/13 11:11:29;;;;;;;10.23;5.05;;;;;;;;;;5018896;28;20036;-81
2023/03/13 11:13:55;;;;;;;8.90;5.03;;;;;;;;;;5007065;28;20027;-83
2023/03/13 11:16:23;;;;;;;9.55;4.53;;;;;;;;;;5003490;28;20061;-81
2023/03/13 11:19:10;;;;;;;7.63;4.22;;;;;;;;;;5004036;28;20113;-83
2023/03/13 11:21:44;;;;;;;7.00;3.88;;;;;;;;;;5017067;28;20080;-81
2023/03/13 11:24:13;;;;;;;7.15;4.28;;;;;;;;;;5017190;28;20037;-81
2023/03/13 11:26:45;;;;;;;5.95;4.13;;;;;;;;;;5021213;28;20030;-81
2023/03/13 11:29:29;;;;;;;6.97;3.92;;;;;;;;;;5004092;28;20085;-81
2023/03/13 11:32:00;;;;;;;8.60;3.78;;;;;;;;;;5004269;28;20027;-81
2023/03/13 11:34:26;;;;;;;8.18;3.90;;;;;;;;;;5021588;28;20021;-80
2023/03/13 11:37:01;;;;;;;7.95;3.97;;;;;;;;;;5025732;28;20033;-81
2023/03/13 11:39:59;;;;;;;6.53;3.83;;;;;;;;;;5017330;28;20437;-82
2023/03/13 11:42:25;;;;;;;5.85;3.60;;;;;;;;;;4997192;28;20072;-82
2023/03/13 11:45:04;;;;;;;5.93;3.80;;;;;;;;;;4985802;28;20050;-81
2023/03/13 11:47:30;;;;;;;6.68;3.92;;;;;;;;;;5004975;28;20185;-81
2023/03/13 11:50:11;;;;;;;8.80;3.92;;;;;;;;;;4987501;28;20023;-82
2023/03/13 11:52:47;;;;;;;6.85;3.95;;;;;;;;;;4983974;28;20408;-84
2023/03/13 11:55:32;;;;;;;8.38;4.10;;;;;;;;;;4972040;28;20050;-84
2023/03/13 11:57:57;;;;;;;7.15;3.70;;;;;;;;;;4989207;28;20051;-83
2023/03/13 12:00:42;;;;;;;7.90;3.67;;;;;;;;;;4985313;28;20037;-79
2023/03/13 12:03:34;;;;;;;5.90;3.60;;;;;;;;;;4970471;28;20410;-81
2023/03/13 12:06:20;;;;;;;7.50;4.25;;;;;;;;;;4965111;28;20073;-81
2023/03/13 12:08:49;;;;;;;6.63;3.28;;;;;;;;;;4977464;28;20030;-81
2023/03/13 12:11:15;;;;;;;6.03;3.30;;;;;;;;;;4999282;28;20050;-82
2023/03/13 12:13:44;;;;;;;7.85;3.88;;;;;;;;;;4979113;28;20091;-80
2023/03/13 12:16:15;;;;;;;7.75;3.90;;;;;;;;;;5004387;28;20130;-80
2023/03/13 12:18:43;;;;;;;9.30;4.20;;;;;;;;;;5020242;28;20048;-81
2023/03/13 12:21:15;;;;;;;11.13;3.88;;;;;;;;;;5025051;28;20039;-82
2023/03/13 12:24:00;;;;;;;7.60;3.50;;;;;;;;;;5018896;28;20053;-82
2023/03/13 12:26:33;;;;;;;5.88;3.78;;;;;;;;;;5006012;28;20431;-83
2023/03/13 12:29:01;;;;;;;6.65;3.83;;;;;;;;;;5005607;28;20038;-81
2023/03/13 12:31:46;;;;;;;6.97;3.05;;;;;;;;;;5019762;28;20393;-81
2023/03/13 12:34:25;;;;;;;6.30;3.65;;;;;;;;;;5004153;28;20058;-82
2023/03/13 12:37:07;;;;;;;6.03;3.63;;;;;;;;;;5006398;28;20026;-81
2023/03/13 12:39:42;;;;;;;6.65;3.63;;;;;;;;;;5005970;28;20089;-82
2023/03/13 12:42:28;;;;;;;6.95;4.00;;;;;;;;;;5024673;28;20029;-83
2023/03/13 12:44:55;;;;;;;6.35;3.60;;;;;;;;;;5012895;28;20042;-81
2023/03/13 12:47:31;;;;;;;5.57;3.40;;;;;;;;;;5018797;28;20062;-79
2023/03/13 12:49:57;;;;;;;6.68;3.60;;;;;;;;;;5026515;28;20033;-81
2023/03/13 12:52:43;;;;;;;8.23;3.80;;;;;;;;;;5020536;28;20030;-81
2023/03/13 12:55:21;;;;;;;8.27;3.47;;;;;;;;;;5016082;28;20029;-80
2023/03/13 12:57:53;;;;;;;7.57;3.63;;;;;;;;;;5016056;28;20105;-81
2023/03/13 13:00:21;;;;;;;7.97;3.28;;;;;;;;;;5018479;28;20510;-81
2023/03/13 13:02:48;;;;;;;7.90;3.53;;;;;;;;;;5008910;28;20022;-81
2023/03/13 13:05:21;;;;;;;6.32;3.30;;;;;;;;;;5011515;28;20391;-81
2023/03/13 13:07:54;;;;;;;7.43;3.80;;;;;;;;;;5021969;28;20049;-80
2023/03/13 13:10:25;;;;;;;6.55;3.33;;;;;;;;;;5012686;28;20297;-81
2023/03/13 13:13:10;;;;;;;5.43;3.25;;;;;;;;;;5009975;28;20072;-81
2023/03/13 13:15:37;;;;;;;5.60;3.00;;;;;;;;;;5005997;28;20027;-82
2023/03/13 13:18:14;;;;;;;6.57;3.70;;;;;;;;;;5011967;28;20033;-81
2023/03/13 13:20:43;;;;;;;6.70;3.78;;;;;;;;;;5012790;28;20030;-82
2023/03/13 13:23:32;;;;;;;6.47;3.53;;;;;;;;;;5015854;28;20090;-81
2023/03/13 13:26:17;;;;;;;6.13;4.18;;;;;;;;;;5006048;28;20042;-81
2023/03/13 13:28:43;;;;;;;7.28;3.47;;;;;;;;;;5013045;28;20022;-81
2023/03/13 13:31:35;;;;;;;5.45;3.40;;;;;;;;;;5019172;28;20081;-81
2023/03/13 13:34:01;;;;;;;7.85;3.28;;;;;;;;;;5008129;28;20026;-80
2023/03/13 13:36:28;;;;;;;7.22;4.00;;;;;;;;;;5017997;28;20072;-81
2023/03/13 13:38:55;;;;;;;8.75;3.50;;;;;;;;;;5020374;28;20026;-79
2023/03/13 13:41:33;;;;;;;6.43;3.00;;;;;;;;;;5025488;28;20057;-81
2023/03/13 13:44:20;;;;;;;7.28;3.42;;;;;;;;;;5008449;28;20567;-81
2023/03/13 13:46:46;;;;;;;7.53;3.72;;;;;;;;;;5004869;28;20030;-82
2023/03/13 13:49:15;;;;;;;7.50;3.50;;;;;;;;;;5005568;28;20018;-80
2023/03/13 13:51:42;;;;;;;5.75;3.28;;;;;;;;;;5005498;28;20057;-81
2023/03/13 13:54:26;;;;;;;6.90;3.33;;;;;;;;;;5009274;28;20028;-81
2023/03/13 13:56:57;;;;;;;6.07;3.08;;;;;;;;;;5006436;28;20034;-80
2023/03/13 13:59:23;;;;;;;7.40;3.97;;;;;;;;;;5005245;28;20054;-80
2023/03/13 14:02:12;;;;;;;7.30;3.70;;;;;;;;;;5007520;28;20122;-80
2023/03/13 14:04:38;;;;;;;7.07;3.28;;;;;;;;;;5004808;28;20041;-81
2023/03/13 14:07:05;;;;;;;8.95;3.47;;;;;;;;;;5012142;28;20026;-81
2023/03/13 14:09:47;;;;;;;13.65;8.18;;;;;;;;;;5013041;28;20022;-79
2023/03/13 14:12:28;;;;;;;16.98;9.10;;;;;;;;;;5012569;28;20018;-81
2023/03/13 14:15:06;;;;;;;13.25;7.55;;;;;;;;;;5010055;28;20061;-81
2023/03/13 14:17:38;;;;;;;7.50;4.72;;;;;;;;;;5016058;28;20034;-81
2023/03/13 14:20:07;;;;;;;8.48;4.15;;;;;;;;;;5016793;28;20022;-81
2023/03/13 14:22:54;;;;;;;6.10;3.22;;;;;;;;;;5009234;28;20494;-80
2023/03/13 14:25:21;;;;;;;7.90;3.28;;;;;;;;;;5022039;28;21026;-81
2023/03/13 14:27:48;;;;;;;7.15;3.67;;;;;;;;;;5013148;28;20018;-80
2023/03/13 14:30:16;;;;;;;7.22;3.30;;;;;;;;;;5010703;28;20030;-81
2023/03/13 14:32:42;;;;;;;6.85;2.90;;;;;;;;;;5002388;28;20053;-80
2023/03/13 14:35:09;;;;;;;6.38;3.05;;;;;;;;;;5009482;28;20049;-81
2023/03/13 14:37:41;;;;;;;6.40;3.40;;;;;;;;;;5004962;28;20556;-81
2023/03/13 14:40:09;;;;;;;6.80;3.75;;;;;;;;;;5000717;28;20034;-81
2023/03/13 14:42:39;;;;;;;8.20;3.28;;;;;;;;;;5009140;28;20036;-82
2023/03/13 14:45:12;;;;;;;6.35;3.08;;;;;;;;;;4999590;28;20026;-82
2023/03/13 14:47:38;;;;;;;5.18;2.90;;;;;;;;;;4999443;28;20049;-81
2023/03/13 14:50:09;;;;;;;6.97;2.90;;;;;;;;;;5006666;28;20707;-81
2023/03/13 14:52:35;;;;;;;7.65;3.35;;;;;;;;;;5015637;28;20022;-82